createdAt,value
2023-02-05T00:00:42.580Z,-3.84
2023-02-05T00:03:15.115Z,-3.83
2023-02-05T00:05:47.728Z,-3.80
2023-02-05T00:08:20.053Z,-3.86
2023-02-05T00:10:56.010Z,-3.91
2023-02-05T00:13:28.497Z,-3.92
2023-02-05T00:16:00.743Z,-3.89
2023-02-05T00:18:33.086Z,-3.92
2023-02-05T08:17:32.870Z,-3.99
2023-02-05T08:20:07.882Z,-4.03
2023-02-05T08:22:47.053Z,-3.99
2023-02-05T08:25:36.552Z,-3.97
2023-02-05T08:31:00.952Z,-3.91
2023-02-05T08:33:34.954Z,-3.81
2023-02-05T08:36:08.962Z,-3.69
2023-02-05T08:41:32.273Z,-3.42
2023-02-05T08:44:05.284Z,-3.26
2023-02-05T08:46:49.303Z,-3.11
2023-02-05T08:49:39.986Z,-3.03
2023-02-05T08:52:34.076Z,-2.96
2023-02-05T08:58:03.468Z,-2.92
2023-02-05T09:00:39.314Z,-2.73
2023-02-05T09:03:12.917Z,-2.66
2023-02-05T09:06:09.279Z,-2.56
2023-02-05T09:11:31.380Z,-2.45
2023-02-05T09:14:04.191Z,-2.48
2023-02-05T09:16:37.106Z,-2.44
2023-02-05T09:22:44.973Z,-2.39
2023-02-05T09:25:32.290Z,-2.32
2023-02-05T09:34:03.550Z,-2.32
2023-02-05T09:36:36.213Z,-2.12
2023-02-05T09:39:20.593Z,-2.04
2023-02-05T09:42:13.787Z,-2.02
2023-02-05T09:45:19.870Z,-1.98
2023-02-05T09:48:30.801Z,-1.93
2023-02-05T09:51:13.454Z,-1.91
2023-02-05T09:54:08.780Z,-1.95
2023-02-05T10:06:27.420Z,-1.48
2023-02-05T10:09:17.907Z,-1.66
2023-02-05T10:12:17.497Z,-1.65
2023-02-05T10:15:18.465Z,-1.55
2023-02-05T10:18:20.814Z,-1.58
2023-02-05T10:21:20.442Z,-1.59
2023-02-05T10:24:31.408Z,-1.66
2023-02-05T10:27:12.974Z,-1.60
2023-02-05T10:30:11.880Z,-1.47
2023-02-05T10:33:12.017Z,-1.39
2023-02-05T10:36:09.742Z,-1.41
2023-02-05T10:44:31.699Z,-1.26
2023-02-05T10:47:06.899Z,-1.19
2023-02-05T10:49:48.370Z,-1.17
2023-02-05T10:52:34.825Z,-1.11
2023-02-05T10:55:05.288Z,-1.17
2023-02-05T10:57:36.185Z,-1.21
2023-02-05T11:00:15.027Z,-1.20
2023-02-05T11:03:06.750Z,-1.24
2023-02-05T11:11:30.205Z,-1.15
2023-02-05T11:14:04.687Z,-1.11
2023-02-05T11:16:41.738Z,-1.08
2023-02-05T11:19:33.715Z,-1.05
2023-02-05T11:22:05.374Z,-1.08
2023-02-05T11:24:48.792Z,-1.26
2023-02-05T11:27:28.394Z,-1.23
2023-02-05T11:30:47.595Z,-1.19
2023-02-05T11:33:31.397Z,-1.21
2023-02-05T11:36:10.148Z,-1.29
2023-02-05T11:39:05.615Z,-1.32
2023-02-05T11:47:30.778Z,-1.40
2023-02-05T11:50:01.625Z,-1.33
2023-02-05T11:52:39.207Z,-1.37
2023-02-05T11:58:37.409Z,-1.34
2023-02-05T12:04:44.756Z,-1.29
2023-02-05T12:07:51.420Z,-1.17
2023-02-05T12:10:39.138Z,-1.06
2023-02-05T12:16:52.220Z,-1.11
2023-02-05T12:19:49.544Z,-1.14
2023-02-05T12:23:08.166Z,-1.18
2023-02-05T12:25:48.439Z,-1.20
2023-02-05T12:28:46.489Z,-1.18
2023-02-05T12:31:48.810Z,-1.16
2023-02-05T12:34:52.429Z,-1.24
2023-02-05T12:37:40.496Z,-1.27
2023-02-05T12:40:51.576Z,-1.29
2023-02-05T12:43:43.534Z,-1.26
2023-02-05T12:46:53.024Z,-1.35
2023-02-05T12:49:50.982Z,-1.38
2023-02-05T12:53:02.564Z,-1.37
2023-02-05T13:02:24.792Z,-1.40
2023-02-05T13:05:04.905Z,-1.36
2023-02-05T13:07:38.017Z,-1.35
2023-02-05T13:10:18.572Z,-1.47
2023-02-05T13:12:52.490Z,-1.54
2023-02-05T13:15:27.345Z,-1.51
2023-02-05T13:18:02.438Z,-1.60
2023-02-05T13:20:56.292Z,-1.66
2023-02-05T13:23:45.019Z,-1.72
2023-02-05T13:26:36.099Z,-1.74
2023-02-05T13:29:11.709Z,-1.77
2023-02-05T13:31:48.250Z,-1.72
2023-02-05T13:34:19.562Z,-1.73
2023-02-05T13:37:25.867Z,-1.73
2023-02-05T13:40:19.986Z,-1.76
2023-02-05T13:43:17.717Z,-1.78
2023-02-05T13:46:20.207Z,-1.81
2023-02-05T13:49:38.477Z,-1.88
2023-02-05T13:52:35.835Z,-1.88
2023-02-05T13:55:29.961Z,-1.86
2023-02-05T13:58:20.309Z,-1.87
2023-02-05T14:01:00.419Z,-1.83
2023-02-05T14:03:38.034Z,-1.87
2023-02-05T14:06:23.846Z,-1.91
2023-02-05T14:09:01.736Z,-1.98
2023-02-05T14:11:51.954Z,-1.92
2023-02-05T14:14:35.604Z,-1.97
2023-02-05T14:17:44.079Z,-1.97
2023-02-05T14:20:40.350Z,-2.01
2023-02-05T14:23:38.317Z,-2.13
2023-02-05T14:26:12.059Z,-2.12
2023-02-05T14:28:51.229Z,-2.21
2023-02-05T14:31:54.334Z,-2.30
2023-02-05T14:34:47.978Z,-2.27
2023-02-05T14:37:40.092Z,-2.39
2023-02-05T14:40:29.050Z,-2.51
2023-02-05T14:43:10.435Z,-2.55
2023-02-05T14:45:46.792Z,-2.53
2023-02-05T14:48:25.448Z,-2.61
2023-02-05T14:51:08.205Z,-2.66
2023-02-05T14:53:39.336Z,-2.65
2023-02-05T14:56:23.509Z,-2.67
2023-02-05T14:59:01.167Z,-2.67
2023-02-05T15:01:45.531Z,-2.68
2023-02-05T15:04:39.523Z,-2.71
2023-02-05T15:07:16.433Z,-2.75
2023-02-05T15:09:52.801Z,-2.76
2023-02-05T15:12:55.797Z,-2.79
2023-02-05T15:15:32.096Z,-2.81
2023-02-05T15:18:21.782Z,-2.85
2023-02-05T15:20:55.985Z,-2.86
2023-02-05T15:23:35.369Z,-2.91
2023-02-05T15:26:09.078Z,-2.92
2023-02-05T15:28:39.935Z,-2.95
2023-02-05T15:31:22.467Z,-3.05
2023-02-05T15:33:59.749Z,-3.08
2023-02-05T15:36:36.534Z,-3.10
2023-02-05T15:39:14.809Z,-3.09
2023-02-05T15:41:48.094Z,-3.15
2023-02-05T15:44:26.630Z,-3.22
2023-02-05T15:47:03.271Z,-3.19
2023-02-05T15:49:38.507Z,-3.19
2023-02-05T15:52:09.026Z,-3.20
2023-02-05T15:54:42.559Z,-3.21
2023-02-05T15:57:25.653Z,-3.20
2023-02-05T16:00:00.669Z,-3.21
2023-02-05T16:02:36.163Z,-3.22
2023-02-05T16:05:24.009Z,-3.24
2023-02-05T16:07:57.168Z,-3.29
2023-02-05T16:10:36.782Z,-3.27
2023-02-05T16:13:21.236Z,-3.30
2023-02-05T16:16:00.900Z,-3.32
2023-02-05T16:18:37.502Z,-3.35
2023-02-05T16:21:16.508Z,-3.42
2023-02-05T16:23:57.742Z,-3.40
2023-02-05T16:26:36.469Z,-3.41
2023-02-05T16:29:20.168Z,-3.42
2023-02-05T16:32:01.916Z,-3.45
2023-02-05T16:34:33.910Z,-3.46
2023-02-05T16:37:05.914Z,-3.47
2023-02-05T16:39:43.012Z,-3.48
2023-02-05T16:42:28.994Z,-3.48
2023-02-05T16:45:20.188Z,-3.46
2023-02-05T16:48:22.349Z,-3.46
2023-02-05T16:50:53.320Z,-3.49
2023-02-05T16:53:27.300Z,-3.52
2023-02-05T16:56:02.351Z,-3.49
2023-02-05T16:58:38.325Z,-3.51
2023-02-05T17:01:08.601Z,-3.50
2023-02-05T17:03:41.687Z,-3.48
2023-02-05T17:06:16.145Z,-3.47
2023-02-05T17:08:55.375Z,-3.49
2023-02-05T17:11:37.995Z,-3.51
2023-02-05T17:14:31.061Z,-3.53
2023-02-05T17:17:18.582Z,-3.54
2023-02-05T17:20:04.684Z,-3.55
2023-02-05T17:22:35.320Z,-3.56
2023-02-05T17:25:06.189Z,-3.56
2023-02-05T17:27:40.020Z,-3.55
2023-02-05T17:30:14.654Z,-3.54
2023-02-05T17:32:47.549Z,-3.58
2023-02-05T17:35:21.751Z,-3.59
2023-02-05T17:37:52.120Z,-3.62
2023-02-05T17:40:27.049Z,-3.71
2023-02-05T17:43:02.241Z,-3.69
2023-02-05T17:45:35.502Z,-3.70
2023-02-05T17:48:07.311Z,-3.73
2023-02-05T17:50:38.356Z,-3.74
2023-02-05T17:53:10.754Z,-3.72
2023-02-05T17:55:41.049Z,-3.73
2023-02-05T17:58:11.476Z,-3.71
2023-02-05T18:00:41.581Z,-3.70
2023-02-05T18:03:11.970Z,-3.73
2023-02-05T18:05:42.129Z,-3.73
2023-02-05T18:08:13.270Z,-3.75
2023-02-05T18:10:43.429Z,-3.78
2023-02-05T18:13:16.538Z,-3.79
2023-02-05T18:15:46.818Z,-3.80
2023-02-05T18:18:19.408Z,-3.80
2023-02-05T18:20:51.846Z,-3.86
2023-02-05T18:23:28.736Z,-3.89
2023-02-05T18:26:00.087Z,-3.93
2023-02-05T18:28:33.673Z,-3.93
2023-02-05T18:31:06.789Z,-3.94
2023-02-05T18:33:37.547Z,-3.95
2023-02-05T18:36:11.248Z,-3.97
2023-02-05T18:38:43.544Z,-3.94
2023-02-05T18:41:15.109Z,-3.91
2023-02-05T18:43:46.257Z,-3.93
2023-02-05T18:46:18.364Z,-3.93
2023-02-05T18:48:50.622Z,-3.93
2023-02-05T18:51:27.130Z,-3.91
2023-02-05T18:53:57.667Z,-3.99
2023-02-05T18:56:28.880Z,-3.97
2023-02-05T18:59:01.979Z,-3.98
2023-02-05T19:01:36.032Z,-4.03
2023-02-05T19:04:14.604Z,-4.04
2023-02-05T19:06:54.104Z,-4.00
2023-02-05T19:09:30.139Z,-4.05
2023-02-05T19:12:03.090Z,-4.06
2023-02-05T19:14:34.618Z,-4.05
2023-02-05T19:17:07.777Z,-4.05
2023-02-05T19:19:39.444Z,-4.06
2023-02-05T19:22:10.735Z,-4.05
2023-02-05T19:24:44.552Z,-4.09
2023-02-05T19:27:21.071Z,-4.11
2023-02-05T19:29:54.740Z,-4.09
2023-02-05T19:32:28.452Z,-4.08
2023-02-05T19:35:02.470Z,-4.06
2023-02-05T19:37:33.877Z,-4.12
2023-02-05T19:40:06.599Z,-4.16
2023-02-05T19:42:38.596Z,-4.21
2023-02-05T19:45:11.255Z,-4.18
2023-02-05T19:47:48.094Z,-4.20
2023-02-05T19:50:20.957Z,-4.13
2023-02-05T19:52:56.537Z,-4.12
2023-02-05T19:55:32.683Z,-4.10
2023-02-05T19:58:05.091Z,-4.08
2023-02-05T20:00:37.666Z,-4.07
2023-02-05T20:03:10.578Z,-4.02
2023-02-05T20:05:46.582Z,-3.99
2023-02-05T20:08:18.934Z,-3.98
2023-02-05T20:10:58.999Z,-3.95
2023-02-05T20:13:32.367Z,-3.92
2023-02-05T20:16:04.160Z,-3.89
2023-02-05T20:18:34.727Z,-3.87
2023-02-05T20:21:08.417Z,-3.85
2023-02-05T20:23:38.907Z,-3.83
2023-02-05T20:26:21.637Z,-3.82
2023-02-05T20:29:12.466Z,-3.81
2023-02-05T20:31:49.818Z,-3.80
2023-02-05T20:34:25.421Z,-3.79
2023-02-05T20:36:55.579Z,-3.77
2023-02-05T20:39:28.392Z,-3.82
2023-02-05T20:42:01.390Z,-3.84
2023-02-05T20:44:35.852Z,-3.85
2023-02-05T20:47:07.514Z,-3.86
2023-02-05T20:49:39.608Z,-3.86
2023-02-05T20:52:10.812Z,-3.84
2023-02-05T20:54:42.847Z,-3.85
2023-02-05T20:57:13.756Z,-3.84
2023-02-05T20:59:44.672Z,-3.84
2023-02-05T21:02:15.693Z,-3.84
2023-02-05T21:04:45.823Z,-3.89
2023-02-05T21:07:16.125Z,-3.89
2023-02-05T21:09:46.570Z,-3.88
2023-02-05T21:12:17.034Z,-3.87
2023-02-05T21:14:47.923Z,-3.87
2023-02-05T21:17:19.374Z,-3.92
2023-02-05T21:19:49.663Z,-3.92
2023-02-05T21:22:19.676Z,-3.92
2023-02-05T21:24:50.143Z,-3.90
2023-02-05T21:27:22.703Z,-3.91
2023-02-05T21:29:52.775Z,-3.92
2023-02-05T21:32:22.915Z,-3.93
2023-02-05T21:34:52.880Z,-3.91
2023-02-05T21:37:23.363Z,-3.95
2023-02-05T21:40:00.834Z,-3.97
2023-02-05T21:42:37.832Z,-3.97
2023-02-05T21:45:10.030Z,-3.97
2023-02-05T21:47:40.305Z,-3.95
2023-02-05T21:50:11.240Z,-3.94
2023-02-05T21:52:42.354Z,-3.93
2023-02-05T21:55:12.655Z,-3.92
2023-02-05T21:57:42.646Z,-3.92
2023-02-05T22:00:14.825Z,-3.93
2023-02-05T22:02:45.088Z,-3.92
2023-02-05T22:05:16.439Z,-3.96
2023-02-05T22:07:46.737Z,-3.96
2023-02-05T22:10:18.137Z,-4.00
2023-02-05T22:12:48.488Z,-4.03
2023-02-05T22:15:19.028Z,-4.03
2023-02-05T22:17:49.108Z,-4.02
2023-02-05T22:20:20.076Z,-4.02
2023-02-05T22:22:50.567Z,-4.02
2023-02-05T22:25:20.950Z,-4.03
2023-02-05T22:27:51.357Z,-4.02
2023-02-05T22:30:21.931Z,-3.99
2023-02-05T22:32:51.786Z,-3.99
2023-02-05T22:35:21.889Z,-3.98
2023-02-05T22:37:51.848Z,-3.98
2023-02-05T22:40:22.248Z,-3.98
2023-02-05T22:42:52.148Z,-4.06
2023-02-05T22:45:22.047Z,-4.03
2023-02-05T22:47:51.801Z,-4.01
2023-02-05T22:50:22.068Z,-3.98
2023-02-05T22:52:52.129Z,-3.98
2023-02-05T22:55:22.507Z,-3.98
2023-02-05T22:57:52.533Z,-4.00
2023-02-05T23:00:22.694Z,-4.06
2023-02-05T23:02:52.897Z,-4.05
2023-02-05T23:05:23.015Z,-4.02
2023-02-05T23:07:54.072Z,-4.01
2023-02-05T23:10:24.676Z,-3.99
2023-02-05T23:12:54.692Z,-3.98
2023-02-05T23:15:25.027Z,-3.98
2023-02-05T23:17:54.952Z,-3.97
2023-02-05T23:20:25.025Z,-3.96
2023-02-05T23:22:56.333Z,-3.96
2023-02-05T23:25:26.597Z,-3.98
2023-02-05T23:27:56.938Z,-4.00
2023-02-05T23:30:27.014Z,-4.00
2023-02-05T23:32:57.061Z,-4.01
2023-02-05T23:35:27.202Z,-4.02
2023-02-05T23:37:57.290Z,-4.03
2023-02-05T23:40:27.356Z,-4.04
2023-02-05T23:42:57.246Z,-4.07
2023-02-05T23:45:27.467Z,-4.09
2023-02-05T23:47:57.756Z,-4.13
2023-02-05T23:50:28.275Z,-4.15
2023-02-05T23:52:58.246Z,-4.17
2023-02-05T23:55:28.406Z,-4.17
2023-02-05T23:57:58.316Z,-4.18
